createdAt,value
2022-10-22T00:01:09.378Z,20.83
2022-10-22T00:02:21.839Z,20.83
2022-10-22T00:03:25.355Z,20.8
2022-10-22T00:04:37.987Z,20.83
2022-10-22T00:05:51.824Z,20.79
2022-10-22T00:06:54.304Z,20.8
2022-10-22T00:08:07.849Z,20.78
2022-10-22T00:09:20.490Z,20.79
2022-10-22T00:10:34.387Z,20.79
2022-10-22T00:11:36.846Z,20.76
2022-10-22T00:12:50.349Z,20.76
2022-10-22T00:13:52.836Z,20.76
2022-10-22T00:15:05.843Z,20.76
2022-10-22T00:16:18.251Z,20.76
2022-10-22T00:17:41.769Z,20.75
2022-10-22T00:18:34.752Z,20.75
2022-10-22T00:19:47.857Z,20.75
2022-10-22T00:21:30.077Z,20.75
2022-10-22T00:22:03.858Z,20.73
2022-10-22T00:23:16.278Z,20.75
2022-10-22T00:24:49.349Z,20.76
2022-10-22T00:26:01.904Z,20.79
2022-10-22T00:26:44.555Z,20.78
2022-10-22T00:27:57.879Z,20.8
2022-10-22T00:29:10.256Z,20.82
2022-10-22T00:30:13.348Z,20.8
2022-10-22T00:31:25.907Z,20.82
2022-10-22T00:32:39.735Z,20.82
2022-10-22T00:33:42.577Z,20.8
2022-10-22T00:34:55.921Z,20.79
2022-10-22T00:36:08.336Z,20.78
2022-10-22T00:37:21.860Z,20.78
2022-10-22T00:38:24.421Z,20.76
2022-10-22T00:39:37.848Z,20.78
2022-10-22T00:40:50.528Z,20.75
2022-10-22T00:41:53.861Z,20.75
2022-10-22T00:43:06.321Z,20.72
2022-10-22T00:44:19.838Z,20.72
2022-10-22T00:45:22.332Z,20.76
2022-10-22T00:46:35.928Z,20.73
2022-10-22T00:47:48.379Z,20.7
2022-10-22T00:49:01.852Z,20.69
2022-10-22T00:51:17.348Z,20.69
2022-10-22T00:52:29.828Z,20.69
2022-10-22T00:53:33.653Z,20.66
2022-10-22T00:55:06.156Z,20.66
2022-10-22T00:55:59.370Z,20.69
2022-10-22T00:57:01.908Z,20.66
2022-10-22T00:58:25.372Z,20.68
2022-10-22T00:59:27.930Z,20.68
2022-10-22T01:00:43.908Z,20.68
2022-10-22T01:01:46.665Z,20.69
2022-10-22T01:02:59.872Z,20.69
2022-10-22T01:04:02.467Z,20.72
2022-10-22T01:05:15.986Z,20.69
2022-10-22T01:06:28.484Z,20.69
2022-10-22T01:07:31.892Z,20.68
2022-10-22T01:08:44.377Z,20.68
2022-10-22T01:09:59.429Z,20.68
2022-10-22T01:11:01.945Z,20.69
2022-10-22T01:12:25.370Z,20.69
2022-10-22T01:13:27.847Z,20.66
2022-10-22T01:14:31.347Z,20.68
2022-10-22T01:15:44.010Z,20.66
2022-10-22T01:16:57.373Z,20.68
2022-10-22T01:17:59.894Z,20.66
2022-10-22T01:19:13.619Z,20.69
2022-10-22T01:20:26.032Z,20.66
2022-10-22T01:21:39.368Z,20.68
2022-10-22T01:22:41.938Z,20.66
2022-10-22T01:23:55.369Z,20.68
2022-10-22T01:25:07.934Z,20.66
2022-10-22T01:26:11.417Z,20.65
2022-10-22T01:27:23.997Z,20.65
2022-10-22T01:28:47.365Z,20.66
2022-10-22T01:29:40.187Z,20.65
2022-10-22T01:30:53.365Z,20.64
2022-10-22T01:32:05.760Z,20.65
2022-10-22T01:33:19.342Z,20.66
2022-10-22T01:34:21.848Z,20.66
2022-10-22T01:35:34.847Z,20.62
2022-10-22T01:36:47.263Z,20.66
2022-10-22T01:37:50.850Z,20.64
2022-10-22T01:39:03.319Z,20.64
2022-10-22T01:40:16.403Z,20.65
2022-10-22T01:41:18.903Z,20.65
2022-10-22T01:42:42.356Z,20.66
2022-10-22T01:43:45.013Z,20.64
2022-10-22T01:44:58.385Z,20.65
2022-10-22T01:46:00.985Z,20.64
2022-10-22T01:47:14.410Z,20.66
2022-10-22T01:48:26.856Z,20.65
2022-10-22T01:49:30.349Z,20.62
2022-10-22T01:50:42.788Z,20.64
2022-10-22T01:51:55.848Z,20.62
2022-10-22T01:52:58.337Z,20.64
2022-10-22T01:54:11.390Z,20.61
2022-10-22T01:55:23.821Z,20.61
2022-10-22T01:56:36.903Z,20.62
2022-10-22T01:57:39.758Z,20.59
2022-10-22T01:58:53.368Z,20.62
2022-10-22T02:00:05.821Z,20.61
2022-10-22T02:01:09.417Z,20.59
2022-10-22T02:02:21.921Z,20.58
2022-10-22T02:03:35.402Z,20.59
2022-10-22T02:04:37.986Z,20.59
2022-10-22T02:05:51.485Z,20.59
2022-10-22T02:07:04.146Z,20.61
2022-10-22T02:08:07.351Z,20.58
2022-10-22T02:09:19.895Z,20.57
2022-10-22T02:10:33.376Z,20.59
2022-10-22T02:11:45.820Z,20.59
2022-10-22T02:12:48.853Z,20.58
2022-10-22T02:14:01.434Z,20.59
2022-10-22T02:15:14.432Z,20.58
2022-10-22T02:16:16.780Z,20.55
2022-10-22T02:17:39.921Z,20.58
2022-10-22T02:19:03.074Z,20.59
2022-10-22T02:19:56.442Z,20.58
2022-10-22T02:20:59.064Z,20.58
2022-10-22T02:22:12.386Z,20.61
2022-10-22T02:23:24.839Z,20.61
2022-10-22T02:24:28.390Z,20.61
2022-10-22T02:25:40.796Z,20.61
2022-10-22T02:26:53.862Z,20.59
2022-10-22T02:27:56.364Z,20.61
2022-10-22T02:29:09.397Z,20.59
2022-10-22T02:30:21.886Z,20.61
2022-10-22T02:31:35.385Z,20.59
2022-10-22T02:32:38.298Z,20.61
2022-10-22T02:33:52.387Z,20.58
2022-10-22T02:34:54.986Z,20.58
2022-10-22T02:36:08.424Z,20.57
2022-10-22T02:37:21.338Z,20.57
2022-10-22T02:38:34.425Z,20.58
2022-10-22T02:39:36.937Z,20.57
2022-10-22T02:40:50.384Z,20.55
2022-10-22T02:42:03.018Z,20.58
2022-10-22T02:43:16.357Z,20.57
2022-10-22T02:44:18.896Z,20.57
2022-10-22T02:45:31.890Z,20.55
2022-10-22T02:46:34.430Z,20.55
2022-10-22T02:47:47.898Z,20.58
2022-10-22T02:49:00.622Z,20.58
2022-10-22T02:50:13.887Z,20.58
2022-10-22T02:51:16.385Z,20.57
2022-10-22T02:52:29.499Z,20.57
2022-10-22T02:53:42.005Z,20.55
2022-10-22T02:54:45.589Z,20.54
2022-10-22T02:55:57.985Z,20.54
2022-10-22T02:57:11.455Z,20.54
2022-10-22T02:58:14.197Z,20.55
2022-10-22T02:59:27.495Z,20.55
2022-10-22T03:00:39.926Z,20.52
2022-10-22T03:01:53.427Z,20.54
2022-10-22T03:02:55.991Z,20.52
2022-10-22T03:04:19.410Z,20.54
2022-10-22T03:05:22.316Z,20.57
2022-10-22T03:07:38.456Z,20.51
2022-10-22T03:08:52.422Z,20.52
2022-10-22T03:09:54.934Z,20.54
2022-10-22T03:11:08.406Z,20.54
2022-10-22T03:12:20.828Z,20.55
2022-10-22T03:13:24.407Z,20.52
2022-10-22T03:14:36.835Z,20.52
2022-10-22T03:15:50.048Z,20.51
2022-10-22T03:17:02.456Z,20.52
2022-10-22T03:18:05.932Z,20.51
2022-10-22T03:19:38.322Z,20.51
2022-10-22T03:20:31.934Z,20.49
2022-10-22T03:21:34.418Z,20.51
2022-10-22T03:22:47.902Z,20.54
2022-10-22T03:24:00.372Z,20.52
2022-10-22T03:25:03.912Z,20.51
2022-10-22T03:26:16.360Z,20.54
2022-10-22T03:27:29.435Z,20.52
2022-10-22T03:28:51.811Z,20.51
2022-10-22T03:29:45.411Z,20.52
2022-10-22T03:30:58.116Z,20.49
2022-10-22T03:32:11.397Z,20.52
2022-10-22T03:33:14.107Z,20.52
2022-10-22T03:34:27.396Z,20.52
2022-10-22T03:35:39.823Z,20.51
2022-10-22T03:36:43.424Z,20.54
2022-10-22T03:38:25.664Z,20.51
2022-10-22T03:39:09.430Z,20.51
2022-10-22T03:40:21.936Z,20.52
2022-10-22T03:41:25.441Z,20.52
2022-10-22T03:42:37.866Z,20.51
2022-10-22T03:43:50.930Z,20.52
2022-10-22T03:44:53.612Z,20.52
2022-10-22T03:46:06.904Z,20.54
2022-10-22T03:47:19.363Z,20.54
2022-10-22T03:48:22.912Z,20.51
2022-10-22T03:49:35.317Z,20.52
2022-10-22T03:50:48.424Z,20.51
2022-10-22T03:52:00.916Z,20.51
2022-10-22T03:53:04.410Z,20.51
2022-10-22T03:55:29.949Z,20.49
2022-10-22T03:56:32.430Z,20.51
2022-10-22T03:57:46.207Z,20.51
2022-10-22T03:58:58.639Z,20.49
2022-10-22T04:00:01.924Z,20.51
2022-10-22T04:01:14.452Z,20.48
2022-10-22T04:02:27.901Z,20.49
2022-10-22T04:03:40.332Z,20.49
2022-10-22T04:04:43.409Z,20.51
2022-10-22T04:06:05.736Z,20.48
2022-10-22T04:07:08.932Z,20.51
2022-10-22T04:08:11.474Z,20.46
2022-10-22T04:09:24.903Z,20.48
2022-10-22T04:10:37.310Z,20.48
2022-10-22T04:12:10.427Z,20.51
2022-10-22T04:12:53.121Z,20.48
2022-10-22T04:14:05.529Z,20.48
2022-10-22T04:15:18.925Z,20.52
2022-10-22T04:16:21.405Z,20.49
2022-10-22T04:17:34.940Z,20.49
2022-10-22T04:18:47.479Z,20.49
2022-10-22T04:19:50.913Z,20.51
2022-10-22T04:21:03.771Z,20.48
2022-10-22T04:22:16.919Z,20.48
2022-10-22T04:23:29.358Z,20.48
2022-10-22T04:24:32.901Z,20.48
2022-10-22T04:25:45.325Z,20.48
2022-10-22T04:26:58.411Z,20.48
2022-10-22T04:28:00.953Z,20.49
2022-10-22T04:29:16.201Z,20.48
2022-10-22T04:30:29.135Z,20.48
2022-10-22T04:31:32.614Z,20.48
2022-10-22T04:32:55.049Z,20.48
2022-10-22T04:33:58.432Z,20.48
2022-10-22T04:35:01.107Z,20.51
2022-10-22T04:36:14.401Z,20.49
2022-10-22T04:37:26.933Z,20.45
2022-10-22T04:38:31.449Z,20.48
2022-10-22T04:39:43.861Z,20.46
2022-10-22T04:40:57.411Z,20.49
2022-10-22T04:41:59.931Z,20.45
2022-10-22T04:43:14.428Z,20.48
2022-10-22T04:44:26.971Z,20.46
2022-10-22T04:45:30.413Z,20.45
2022-10-22T04:46:42.825Z,20.46
2022-10-22T04:47:55.990Z,20.46
2022-10-22T04:49:08.441Z,20.46
2022-10-22T04:50:12.053Z,20.46
2022-10-22T04:51:24.500Z,20.46
2022-10-22T04:52:37.939Z,20.46
2022-10-22T04:53:40.459Z,20.45
2022-10-22T04:54:53.908Z,20.44
2022-10-22T04:56:06.276Z,20.48
2022-10-22T04:57:09.451Z,20.45
2022-10-22T04:58:21.951Z,20.45
2022-10-22T04:59:35.438Z,20.48
2022-10-22T05:00:38.072Z,20.46
2022-10-22T05:02:11.418Z,20.46
2022-10-22T05:03:04.005Z,20.48
2022-10-22T05:04:17.682Z,20.46
2022-10-22T05:05:20.255Z,20.45
2022-10-22T05:06:33.474Z,20.46
2022-10-22T05:07:45.907Z,20.48
2022-10-22T05:08:49.446Z,20.45
2022-10-22T05:10:01.863Z,20.48
2022-10-22T05:11:15.468Z,20.49
2022-10-22T05:12:17.959Z,20.49
2022-10-22T05:13:31.451Z,20.48
2022-10-22T05:14:44.795Z,20.48
2022-10-22T05:15:58.443Z,20.46
2022-10-22T05:17:00.931Z,20.46
2022-10-22T05:18:15.844Z,20.44
2022-10-22T05:19:19.436Z,20.46
2022-10-22T05:20:32.919Z,20.46
2022-10-22T05:21:45.339Z,20.46
2022-10-22T05:22:48.445Z,20.45
2022-10-22T05:24:00.855Z,20.45
2022-10-22T05:25:15.461Z,20.45
2022-10-22T05:26:17.951Z,20.44
2022-10-22T05:27:31.444Z,20.44
2022-10-22T05:28:43.868Z,20.46
2022-10-22T05:29:56.956Z,20.44
2022-10-22T05:30:59.470Z,20.44
2022-10-22T05:32:12.951Z,20.42
2022-10-22T05:33:25.400Z,20.45
2022-10-22T05:34:38.463Z,20.45
2022-10-22T05:35:43.209Z,20.44
2022-10-22T05:36:49.959Z,20.42
2022-10-22T05:38:02.392Z,20.41
2022-10-22T05:39:15.430Z,20.42
2022-10-22T05:40:31.132Z,20.41
2022-10-22T05:41:34.951Z,20.42
2022-10-22T05:42:47.443Z,20.42
2022-10-22T05:43:50.964Z,20.41
2022-10-22T05:45:03.414Z,20.42
2022-10-22T05:46:21.975Z,20.39
2022-10-22T05:47:24.945Z,20.38
2022-10-22T05:48:28.521Z,20.44
2022-10-22T05:49:41.017Z,20.42
2022-10-22T05:50:54.416Z,20.44
2022-10-22T05:52:06.854Z,20.41
2022-10-22T05:53:10.451Z,20.39
2022-10-22T05:54:22.888Z,20.42
2022-10-22T05:55:35.936Z,20.42
2022-10-22T05:56:38.424Z,20.42
2022-10-22T05:57:51.431Z,20.39
2022-10-22T06:00:17.024Z,20.39
2022-10-22T06:01:19.522Z,20.39
2022-10-22T06:02:33.017Z,20.42
2022-10-22T06:03:45.538Z,20.42
2022-10-22T06:04:58.931Z,20.39
2022-10-22T06:06:01.444Z,20.39
2022-10-22T06:07:34.481Z,20.38
2022-10-22T06:08:27.071Z,20.42
2022-10-22T06:09:30.447Z,20.42
2022-10-22T06:10:43.934Z,20.41
2022-10-22T06:11:56.388Z,20.42
2022-10-22T06:12:59.962Z,20.42
2022-10-22T06:14:12.469Z,20.42
2022-10-22T06:15:25.969Z,20.44
2022-10-22T06:16:28.475Z,20.42
2022-10-22T06:17:41.948Z,20.42
2022-10-22T06:18:54.526Z,20.41
2022-10-22T06:20:07.974Z,20.42
2022-10-22T06:21:10.511Z,20.42
2022-10-22T06:22:23.941Z,20.44
2022-10-22T06:23:36.348Z,20.42
2022-10-22T06:24:41.613Z,20.42
2022-10-22T06:25:56.776Z,20.39
2022-10-22T06:27:00.020Z,20.42
2022-10-22T06:28:12.619Z,20.42
2022-10-22T06:29:25.939Z,20.42
2022-10-22T06:30:28.496Z,20.41
2022-10-22T06:31:41.951Z,20.38
2022-10-22T06:32:54.353Z,20.39
2022-10-22T06:34:07.463Z,20.39
2022-10-22T06:35:10.095Z,20.38
2022-10-22T06:36:23.455Z,20.38
2022-10-22T06:37:35.919Z,20.39
2022-10-22T06:38:39.442Z,20.39
2022-10-22T06:39:51.856Z,20.38
2022-10-22T06:41:05.013Z,20.39
2022-10-22T06:42:37.386Z,20.41
2022-10-22T06:43:21.453Z,20.38
2022-10-22T06:44:33.856Z,20.39
2022-10-22T06:45:46.975Z,20.44
2022-10-22T06:46:49.482Z,20.39
2022-10-22T06:48:03.028Z,20.42
2022-10-22T06:49:15.720Z,20.39
2022-10-22T06:50:19.004Z,20.45
2022-10-22T06:51:31.348Z,20.51
2022-10-22T06:52:44.449Z,20.62
2022-10-22T06:53:56.748Z,20.73
2022-10-22T06:54:59.958Z,20.86
2022-10-22T06:56:12.238Z,20.99
2022-10-22T06:57:25.504Z,21.09
2022-10-22T06:59:47.125Z,21.3
2022-10-22T07:00:49.436Z,21.41
2022-10-22T07:02:02.672Z,21.48
2022-10-22T07:03:14.930Z,21.58
2022-10-22T07:04:28.202Z,21.65
2022-10-22T07:05:30.776Z,21.74
2022-10-22T07:06:43.884Z,21.82
2022-10-22T07:07:56.111Z,21.87
2022-10-22T07:08:59.407Z,21.91
2022-10-22T07:10:11.776Z,21.98
2022-10-22T07:11:24.781Z,22.03
2022-10-22T07:12:27.050Z,22.06
2022-10-22T07:13:40.197Z,22.09
2022-10-22T07:14:52.978Z,22.02
2022-10-22T07:16:06.156Z,21.31
2022-10-22T07:17:09.524Z,20.57
2022-10-22T07:18:22.643Z,20.11
2022-10-22T07:19:35.114Z,20.37
2022-10-22T07:20:38.253Z,20.45
2022-10-22T07:21:50.575Z,20.49
2022-10-22T07:23:03.696Z,20.48
2022-10-22T07:24:15.992Z,20.44
2022-10-22T07:25:19.250Z,20.42
2022-10-22T07:26:31.569Z,20.38
2022-10-22T07:27:44.687Z,20.34
2022-10-22T07:28:47.124Z,20.34
2022-10-22T07:30:00.179Z,20.29
2022-10-22T07:31:12.464Z,20.27
2022-10-22T07:32:25.682Z,20.24
2022-10-22T07:33:28.115Z,20.25
2022-10-22T07:34:43.162Z,20.22
2022-10-22T07:35:56.617Z,20.21
2022-10-22T07:36:59.673Z,20.19
2022-10-22T07:38:12.256Z,20.25
2022-10-22T07:39:25.187Z,20.32
2022-10-22T07:40:27.577Z,20.32
2022-10-22T07:41:40.673Z,20.34
2022-10-22T07:42:52.981Z,20.38
2022-10-22T07:44:06.155Z,20.41
2022-10-22T07:45:08.629Z,20.45
2022-10-22T07:46:22.183Z,20.49
2022-10-22T07:47:34.499Z,20.49
2022-10-22T07:48:37.662Z,20.52
2022-10-22T07:49:50.171Z,20.62
2022-10-22T07:51:03.190Z,20.65
2022-10-22T07:52:15.439Z,20.69
2022-10-22T07:53:18.701Z,20.75
2022-10-22T07:54:30.957Z,20.76
2022-10-22T07:55:44.177Z,20.83
2022-10-22T07:56:46.579Z,20.88
2022-10-22T07:58:00.196Z,20.93
2022-10-22T07:59:12.496Z,21.03
2022-10-22T08:00:25.664Z,21.1
2022-10-22T08:01:27.998Z,21.2
2022-10-22T08:02:41.591Z,21.26
2022-10-22T08:04:03.901Z,21.34
2022-10-22T08:04:57.221Z,21.41
2022-10-22T08:06:09.401Z,21.5
2022-10-22T08:07:22.238Z,21.58
2022-10-22T08:08:34.635Z,21.65
2022-10-22T08:09:37.669Z,21.71
2022-10-22T08:10:49.787Z,21.77
2022-10-22T08:12:02.666Z,21.84
2022-10-22T08:13:14.846Z,21.87
2022-10-22T08:14:17.684Z,21.95
2022-10-22T08:15:29.859Z,21.99
2022-10-22T08:16:42.712Z,22.02
2022-10-22T08:17:54.882Z,22.08
2022-10-22T08:18:58.671Z,22.13
2022-10-22T08:20:10.895Z,22.16
2022-10-22T08:21:25.161Z,22.19
2022-10-22T08:22:27.385Z,22.21
2022-10-22T08:23:40.194Z,22.23
2022-10-22T08:24:52.340Z,22.26
2022-10-22T08:26:05.203Z,22.29
2022-10-22T08:27:07.461Z,22.32
2022-10-22T08:28:22.061Z,22.33
2022-10-22T08:29:34.595Z,22.35
2022-10-22T08:30:37.709Z,22.39
2022-10-22T08:31:50.414Z,22.42
2022-10-22T08:33:03.209Z,22.45
2022-10-22T08:34:05.417Z,22.45
2022-10-22T08:35:18.186Z,22.5
2022-10-22T08:36:30.316Z,22.5
2022-10-22T08:37:43.396Z,22.52
2022-10-22T08:38:46.038Z,22.5
2022-10-22T08:39:59.717Z,22.5
2022-10-22T08:41:11.889Z,22.53
2022-10-22T08:42:24.711Z,22.54
2022-10-22T08:43:27.024Z,22.57
2022-10-22T08:44:40.188Z,22.54
2022-10-22T08:45:52.327Z,22.54
2022-10-22T08:46:55.691Z,22.53
2022-10-22T08:48:07.819Z,22.54
2022-10-22T08:49:20.696Z,22.56
2022-10-22T08:50:32.768Z,22.56
2022-10-22T08:51:35.738Z,22.56
2022-10-22T08:52:47.794Z,22.56
2022-10-22T08:54:01.214Z,22.56
2022-10-22T08:55:03.514Z,22.54
2022-10-22T08:56:36.219Z,22.56
2022-10-22T08:57:28.617Z,22.53
2022-10-22T08:58:41.768Z,22.57
2022-10-22T08:59:43.978Z,22.57
2022-10-22T09:00:56.707Z,22.59
2022-10-22T09:02:08.954Z,22.59
2022-10-22T09:03:21.729Z,22.6
2022-10-22T09:04:23.936Z,22.59
2022-10-22T09:05:36.701Z,22.6
2022-10-22T09:06:50.806Z,22.63
2022-10-22T09:07:56.724Z,22.63
2022-10-22T09:09:08.999Z,22.7
2022-10-22T09:10:12.224Z,22.73
2022-10-22T09:11:24.344Z,22.77
2022-10-22T09:12:37.210Z,22.83
2022-10-22T09:13:49.300Z,22.84
2022-10-22T09:14:52.217Z,22.9
2022-10-22T09:16:04.320Z,22.93
2022-10-22T09:17:17.207Z,22.94
2022-10-22T09:18:29.407Z,22.97
2022-10-22T09:19:32.698Z,23.0
2022-10-22T09:20:44.610Z,23.03
2022-10-22T09:21:57.720Z,23.04
2022-10-22T09:22:59.884Z,23.04
2022-10-22T09:24:13.193Z,23.07
2022-10-22T09:25:25.287Z,23.07
2022-10-22T09:26:38.212Z,23.11
2022-10-22T09:27:40.758Z,23.11
2022-10-22T09:28:54.217Z,23.14
2022-10-22T09:30:06.350Z,23.17
2022-10-22T09:31:09.217Z,23.17
2022-10-22T09:32:21.310Z,23.21
2022-10-22T09:33:34.699Z,23.24
2022-10-22T09:34:46.795Z,23.27
2022-10-22T09:35:49.750Z,23.31
2022-10-22T09:37:01.880Z,23.34
2022-10-22T09:38:14.741Z,23.37
2022-10-22T09:39:26.801Z,23.38
2022-10-22T09:40:29.735Z,23.41
2022-10-22T09:41:41.814Z,23.45
2022-10-22T09:42:54.708Z,23.45
2022-10-22T09:43:56.914Z,23.47
2022-10-22T09:45:09.733Z,23.45
2022-10-22T09:46:21.704Z,23.47
2022-10-22T09:47:42.509Z,23.47
2022-10-22T09:48:35.557Z,23.45
2022-10-22T09:49:48.252Z,23.47
2022-10-22T09:51:00.336Z,23.45
2022-10-22T09:52:33.240Z,23.45
2022-10-22T09:53:15.767Z,23.45
2022-10-22T09:54:28.010Z,23.47
2022-10-22T09:55:41.224Z,23.47
2022-10-22T09:56:43.382Z,23.47
2022-10-22T09:57:56.246Z,23.49
2022-10-22T09:59:08.371Z,23.47
2022-10-22T10:00:21.250Z,23.44
2022-10-22T10:01:23.481Z,23.47
2022-10-22T10:02:38.566Z,23.45
2022-10-22T10:03:51.287Z,23.44
2022-10-22T10:04:54.243Z,23.42
2022-10-22T10:06:06.480Z,23.42
2022-10-22T10:07:19.215Z,23.41
2022-10-22T10:08:21.375Z,23.39
2022-10-22T10:09:34.248Z,23.37
2022-10-22T10:10:46.347Z,23.38
2022-10-22T10:11:59.254Z,23.35
2022-10-22T10:13:01.626Z,23.35
2022-10-22T10:14:14.755Z,23.32
2022-10-22T10:15:26.853Z,23.34
2022-10-22T10:16:39.743Z,23.32
2022-10-22T10:17:42.245Z,23.32
2022-10-22T10:18:55.240Z,23.3
2022-10-22T10:20:07.498Z,23.27
2022-10-22T10:21:10.831Z,23.25
2022-10-22T10:22:22.968Z,23.27
2022-10-22T10:23:35.776Z,23.23
2022-10-22T10:24:47.963Z,23.24
2022-10-22T10:25:51.751Z,23.23
2022-10-22T10:27:03.882Z,23.23
2022-10-22T10:28:16.776Z,23.2
2022-10-22T10:29:19.054Z,23.2
2022-10-22T10:30:31.734Z,23.2
2022-10-22T10:31:43.855Z,23.18
2022-10-22T10:32:56.719Z,23.18
2022-10-22T10:33:58.907Z,23.15
2022-10-22T10:35:11.722Z,23.17
2022-10-22T10:36:23.896Z,23.15
2022-10-22T10:37:26.761Z,23.11
2022-10-22T10:38:38.844Z,23.13
2022-10-22T10:39:51.767Z,23.11
2022-10-22T10:41:03.843Z,23.1
2022-10-22T10:42:06.778Z,23.1
2022-10-22T10:43:18.904Z,23.08
2022-10-22T10:44:32.256Z,23.08
2022-10-22T10:45:44.390Z,23.1
2022-10-22T10:46:47.231Z,23.08
2022-10-22T10:47:59.338Z,23.05
2022-10-22T10:49:12.289Z,23.07
2022-10-22T10:50:14.569Z,23.05
2022-10-22T10:51:37.250Z,23.05
2022-10-22T10:52:39.524Z,23.05
2022-10-22T10:53:53.729Z,23.04
2022-10-22T10:54:56.057Z,23.03
2022-10-22T10:56:10.240Z,23.03
2022-10-22T10:57:12.514Z,23.03
2022-10-22T10:58:25.262Z,23.04
2022-10-22T10:59:37.370Z,23.03
2022-10-22T11:00:50.265Z,23.03
2022-10-22T11:01:52.578Z,23.03
2022-10-22T11:03:05.773Z,23.03
2022-10-22T11:04:17.868Z,23.03
2022-10-22T11:05:30.788Z,23.01
2022-10-22T11:06:33.117Z,23.01
2022-10-22T11:07:46.905Z,23.04
2022-10-22T11:08:51.251Z,23.03
2022-10-22T11:10:04.268Z,23.07
2022-10-22T11:12:30.252Z,23.08
2022-10-22T11:13:32.517Z,23.11
2022-10-22T11:14:45.343Z,23.11
2022-10-22T11:15:57.444Z,23.14
2022-10-22T11:17:00.281Z,23.15
2022-10-22T11:18:12.377Z,23.14
2022-10-22T11:19:46.105Z,23.17
2022-10-22T11:20:32.569Z,23.17
2022-10-22T11:21:44.674Z,23.2
2022-10-22T11:23:18.032Z,23.21
2022-10-22T11:24:01.148Z,23.23
2022-10-22T11:25:13.222Z,23.2
2022-10-22T11:26:26.285Z,23.24
2022-10-22T11:27:28.536Z,23.27
2022-10-22T11:28:41.264Z,23.28
2022-10-22T11:29:53.357Z,23.3
2022-10-22T11:31:06.739Z,23.3
2022-10-22T11:32:08.987Z,23.31
2022-10-22T11:33:21.759Z,23.34
2022-10-22T11:34:34.444Z,23.34
2022-10-22T11:35:37.821Z,23.34
2022-10-22T11:36:49.869Z,23.35
2022-10-22T11:38:02.781Z,23.35
2022-10-22T11:39:04.946Z,23.37
2022-10-22T11:40:17.742Z,23.41
2022-10-22T11:41:49.619Z,23.39
2022-10-22T11:42:42.762Z,23.41
2022-10-22T11:43:45.007Z,23.47
2022-10-22T11:44:57.753Z,23.49
2022-10-22T11:46:09.809Z,23.54
2022-10-22T11:47:22.806Z,23.55
2022-10-22T11:48:25.005Z,23.58
2022-10-22T11:49:37.761Z,23.59
2022-10-22T11:50:49.691Z,23.66
2022-10-22T11:52:04.963Z,23.69
2022-10-22T11:53:07.448Z,23.69
2022-10-22T11:54:20.291Z,23.78
2022-10-22T11:55:22.490Z,23.85
2022-10-22T11:56:35.277Z,23.89
2022-10-22T11:57:47.565Z,23.96
2022-10-22T11:59:00.561Z,24.03
2022-10-22T12:00:02.849Z,24.07
2022-10-22T12:01:15.771Z,24.11
2022-10-22T12:02:27.694Z,24.17
2022-10-22T12:03:40.748Z,24.22
2022-10-22T12:04:42.988Z,24.25
2022-10-22T12:05:57.244Z,24.27
2022-10-22T12:07:09.320Z,24.3
2022-10-22T12:08:14.944Z,24.3
2022-10-22T12:09:28.129Z,24.33
2022-10-22T12:10:50.811Z,24.37
2022-10-22T12:11:43.033Z,24.39
2022-10-22T12:12:55.851Z,24.41
2022-10-22T12:14:07.847Z,24.43
2022-10-22T12:15:10.776Z,24.47
2022-10-22T12:16:32.153Z,24.49
2022-10-22T12:17:34.271Z,24.51
2022-10-22T12:18:46.254Z,24.53
2022-10-22T12:19:49.273Z,24.57
2022-10-22T12:21:01.308Z,24.56
2022-10-22T12:22:14.282Z,24.63
2022-10-22T12:23:16.437Z,24.58
2022-10-22T12:24:29.397Z,24.6
2022-10-22T12:25:41.489Z,24.6
2022-10-22T12:26:54.275Z,24.57
2022-10-22T12:27:56.763Z,24.56
2022-10-22T12:29:09.790Z,24.56
2022-10-22T12:30:21.773Z,24.53
2022-10-22T12:31:34.780Z,24.51
2022-10-22T12:32:37.046Z,24.49
2022-10-22T12:34:09.798Z,24.46
2022-10-22T12:35:02.662Z,24.46
2022-10-22T12:36:45.344Z,24.46
2022-10-22T12:37:18.027Z,24.44
2022-10-22T12:38:29.921Z,24.47
2022-10-22T12:39:42.771Z,24.49
2022-10-22T12:40:54.796Z,24.47
2022-10-22T12:41:57.881Z,24.5
2022-10-22T12:44:12.325Z,24.46
2022-10-22T12:45:24.324Z,24.49
2022-10-22T12:46:37.321Z,24.46
2022-10-22T12:47:49.291Z,24.46
2022-10-22T12:48:52.317Z,24.44
2022-10-22T12:50:04.379Z,24.43
2022-10-22T12:51:17.326Z,24.43
2022-10-22T12:52:19.655Z,24.44
2022-10-22T12:53:32.293Z,24.43
2022-10-22T12:54:44.238Z,24.4
2022-10-22T12:55:57.283Z,24.36
2022-10-22T12:56:59.443Z,24.36
2022-10-22T12:58:12.288Z,24.32
2022-10-22T12:59:24.310Z,24.32
2022-10-22T13:00:37.366Z,24.26
2022-10-22T13:01:39.585Z,24.27
2022-10-22T13:02:52.311Z,24.25
2022-10-22T13:04:04.328Z,24.19
2022-10-22T13:05:07.289Z,24.17
2022-10-22T13:06:19.309Z,24.14
2022-10-22T13:07:32.360Z,24.13
2022-10-22T13:08:44.412Z,24.1
2022-10-22T13:09:47.305Z,24.1
2022-10-22T13:10:59.329Z,24.09
2022-10-22T13:12:12.310Z,24.09
2022-10-22T13:13:14.413Z,24.07
2022-10-22T13:14:27.308Z,24.03
2022-10-22T13:15:39.325Z,24.03
2022-10-22T13:16:52.367Z,24.03
2022-10-22T13:17:54.627Z,24.03
2022-10-22T13:19:07.322Z,24.02
2022-10-22T13:20:19.369Z,24.02
2022-10-22T13:21:32.312Z,24.0
2022-10-22T13:22:34.434Z,24.0
2022-10-22T13:23:47.337Z,23.98
2022-10-22T13:24:59.610Z,23.99
2022-10-22T13:26:02.807Z,23.96
2022-10-22T13:27:14.770Z,23.96
2022-10-22T13:28:28.838Z,23.93
2022-10-22T13:29:31.051Z,23.95
2022-10-22T13:30:43.791Z,23.92
2022-10-22T13:31:55.945Z,23.93
2022-10-22T13:33:08.820Z,23.93
2022-10-22T13:34:13.003Z,23.93
2022-10-22T13:35:27.822Z,23.92
2022-10-22T13:36:29.976Z,23.92
2022-10-22T13:37:43.187Z,23.9
2022-10-22T13:38:55.907Z,23.89
2022-10-22T13:40:11.037Z,23.92
2022-10-22T13:41:13.453Z,23.89
2022-10-22T13:42:26.341Z,23.89
2022-10-22T13:43:28.579Z,23.92
2022-10-22T13:44:41.296Z,23.9
2022-10-22T13:45:53.278Z,23.92
2022-10-22T13:47:06.321Z,23.92
2022-10-22T13:48:08.544Z,23.89
2022-10-22T13:49:21.845Z,23.96
2022-10-22T13:50:33.849Z,24.0
2022-10-22T13:51:47.348Z,24.0
2022-10-22T13:52:49.553Z,24.05
2022-10-22T13:54:02.347Z,24.09
2022-10-22T13:55:14.321Z,24.11
2022-10-22T13:56:17.310Z,24.1
2022-10-22T13:57:29.333Z,24.11
2022-10-22T13:58:42.353Z,24.1
2022-10-22T13:59:44.557Z,24.11
2022-10-22T14:00:57.370Z,24.11
2022-10-22T14:02:09.704Z,24.09
2022-10-22T14:03:22.327Z,24.09
2022-10-22T14:04:24.437Z,24.07
2022-10-22T14:05:37.313Z,24.06
2022-10-22T14:06:49.322Z,24.06
2022-10-22T14:08:02.327Z,24.05
2022-10-22T14:09:04.582Z,24.05
2022-10-22T14:10:17.308Z,24.05
2022-10-22T14:11:29.293Z,24.05
2022-10-22T14:12:42.389Z,24.05
2022-10-22T14:13:44.555Z,24.13
2022-10-22T14:16:09.576Z,24.23
2022-10-22T14:17:12.358Z,24.26
2022-10-22T14:18:34.244Z,24.29
2022-10-22T14:19:37.359Z,24.4
2022-10-22T14:20:49.274Z,24.58
2022-10-22T14:21:52.364Z,24.75
2022-10-22T14:23:14.292Z,24.94
2022-10-22T14:24:17.346Z,25.11
2022-10-22T14:25:29.199Z,25.29
2022-10-22T14:26:31.846Z,25.42
2022-10-22T14:27:43.995Z,25.53
2022-10-22T14:29:10.749Z,25.65
2022-10-22T14:30:03.928Z,25.73
2022-10-22T14:31:16.367Z,25.8
2022-10-22T14:32:18.350Z,25.89
2022-10-22T14:33:32.093Z,26.01
2022-10-22T14:34:44.361Z,26.13
2022-10-22T14:35:56.833Z,26.2
2022-10-22T14:36:58.868Z,26.25
2022-10-22T14:38:11.358Z,26.34
2022-10-22T14:39:23.214Z,26.41
2022-10-22T14:40:35.840Z,26.45
2022-10-22T14:41:37.871Z,26.52
2022-10-22T14:42:50.355Z,26.57
2022-10-22T14:44:02.206Z,26.58
2022-10-22T14:45:14.837Z,26.58
2022-10-22T14:46:16.842Z,26.62
2022-10-22T14:47:29.367Z,26.62
2022-10-22T14:48:41.208Z,26.62
2022-10-22T14:49:53.901Z,26.64
2022-10-22T14:50:55.927Z,26.64
2022-10-22T14:52:10.591Z,26.67
2022-10-22T14:53:15.016Z,26.67
2022-10-22T14:54:27.846Z,26.65
2022-10-22T14:55:39.705Z,26.62
2022-10-22T14:56:52.374Z,26.52
2022-10-22T14:57:54.400Z,26.45
2022-10-22T14:59:06.873Z,26.3
2022-10-22T15:00:18.755Z,26.18
2022-10-22T15:01:31.350Z,26.09
2022-10-22T15:02:33.393Z,25.97
2022-10-22T15:03:46.368Z,25.84
2022-10-22T15:06:10.873Z,25.67
2022-10-22T15:07:16.883Z,25.62
2022-10-22T15:08:21.865Z,25.58
2022-10-22T15:09:33.795Z,25.51
2022-10-22T15:10:46.369Z,25.48
2022-10-22T15:11:58.292Z,25.48
2022-10-22T15:13:01.351Z,25.42